Cave Creek, Arizona
Current Conditions -  °F | °C
As of 5:53 PM on Tuesday 27 Jan 2015 (Local Time) from KDVT Reporting Station
Clear Clear  
Wind Chill: 69°   Ceiling: Unl
Heat Index: 69°   Visibility: 10mi
Dew Point: 48°   Wind: 3mph
Humidity: 47%   Direction: 210°SSW
Pressure: 30.14"   Gusts: NA
Location:  33.83°N, 111.97°W
Report Text: KDVT 280053Z AUTO 21003KT 10SM CLR 21/09 A3014 RMK AO2 SLP193 T02060089
Loading
Personal Weather Stations






























Interactive Weather Map New forecast layout! Learn more

10-Day Weather Forecast

Advertisements
Track Severe Weather on mobile